Time;durP1;ratioP1;P1;durP2;ratioP2;P2;SDS_P1;SDS_P2;PMS_P1;PMS_P2;Temp;Humidity;BMP_temperature;BMP_pressure;BME280_temperature;BME280_humidity;BME280_pressure;Samples;Min_cycle;Max_cycle;Signal;HPM_P1;HPM_P2
2021/06/30 00:01:42;;;;;;;;;10.75;10.00;;;;;16.84;82.15;101103.03;5007681;28;45897;-66
2021/06/30 00:04:08;;;;;;;;;11.00;10.00;;;;;16.83;82.25;101099.56;5008900;28;46741;-75
2021/06/30 00:06:33;;;;;;;;;12.00;10.00;;;;;16.84;81.98;101105.72;5007090;28;45579;-76
2021/06/30 00:08:59;;;;;;;;;12.00;11.25;;;;;16.84;82.21;101105.72;5009155;28;45473;-65
2021/06/30 00:11:26;;;;;;;;;14.75;13.00;;;;;16.84;82.43;101101.22;5016630;28;45601;-65
2021/06/30 00:13:51;;;;;;;;;13.50;12.50;;;;;16.84;82.56;101106.56;5011137;28;46576;-71
2021/06/30 00:16:17;;;;;;;;;11.00;10.75;;;;;16.86;82.67;101101.03;5007445;28;45634;-65
2021/06/30 00:18:43;;;;;;;;;14.00;11.50;;;;;16.87;82.18;101100.03;5008672;28;45418;-66
2021/06/30 00:21:09;;;;;;;;;16.25;14.25;;;;;16.84;82.43;101095.88;5003765;28;45668;-66
2021/06/30 00:23:34;;;;;;;;;11.50;10.25;;;;;16.87;82.78;101097.38;5009965;28;46436;-71
2021/06/30 00:25:59;;;;;;;;;13.00;12.50;;;;;16.87;82.81;101100.84;5006599;28;45541;-72
2021/06/30 00:28:25;;;;;;;;;13.00;10.75;;;;;16.87;82.71;101097.38;5021058;28;45623;-72
2021/06/30 00:30:50;;;;;;;;;11.50;11.00;;;;;16.87;83.06;101097.38;5007933;28;45384;-70
2021/06/30 00:33:16;;;;;;;;;14.50;10.75;;;;;16.87;82.78;101103.53;5006472;28;47096;-70
2021/06/30 00:35:41;;;;;;;;;12.00;11.00;;;;;16.87;82.94;101095.53;5008226;28;45573;-72
2021/06/30 00:38:06;;;;;;;;;13.00;10.25;;;;;16.88;82.84;101099.84;5007933;28;45618;-76
2021/06/30 00:40:32;;;;;;;;;11.00;10.50;;;;;16.87;82.51;101092.84;5006883;28;45477;-66
2021/06/30 00:42:57;;;;;;;;;12.00;10.00;;;;;16.86;82.05;101087.69;5006963;28;46426;-66
2021/06/30 00:45:23;;;;;;;;;12.75;9.75;;;;;16.84;82.50;101098.56;5005985;28;45466;-66
2021/06/30 00:47:48;;;;;;;;;10.50;9.25;;;;;16.82;82.39;101095.25;4999533;28;45547;-71
2021/06/30 00:50:18;;;;;;;;;10.00;7.75;;;;;16.78;82.79;101093.94;5006727;28;46553;-64
2021/06/30 00:52:44;;;;;;;;;8.00;8.00;;;;;16.73;82.41;101093.63;5005075;28;46551;-64
2021/06/30 00:55:10;;;;;;;;;6.50;5.75;;;;;16.72;82.16;101089.31;5004570;28;45489;-64
2021/06/30 00:57:37;;;;;;;;;7.50;6.25;;;;;16.68;82.46;101091.47;5005835;28;48266;-65
2021/06/30 01:00:07;;;;;;;;;8.00;6.75;;;;;16.66;82.26;101092.69;5001337;28;45837;-64
2021/06/30 01:02:33;;;;;;;;;8.50;7.00;;;;;16.63;82.36;101088.53;5003604;28;45522;-64
2021/06/30 01:04:58;;;;;;;;;10.75;7.75;;;;;16.60;82.52;101096.91;5022080;28;46118;-71
2021/06/30 01:07:23;;;;;;;;;6.00;6.00;;;;;16.56;82.68;101085.75;5008918;28;45468;-68
2021/06/30 01:09:49;;;;;;;;;5.75;5.00;;;;;16.55;82.49;101088.59;5001085;28;45731;-66
2021/06/30 01:12:14;;;;;;;;;9.50;6.50;;;;;16.54;82.69;101089.59;4999889;28;46428;-65
2021/06/30 01:14:41;;;;;;;;;6.50;5.00;;;;;16.52;82.55;101094.31;5006156;28;45745;-72
2021/06/30 01:17:07;;;;;;;;;7.00;6.50;;;;;16.51;82.36;101090.78;5005916;28;45654;-72
2021/06/30 01:19:35;;;;;;;;;7.25;4.75;;;;;16.49;82.89;101087.50;4999661;28;45652;-75
2021/06/30 01:22:01;;;;;;;;;6.50;6.00;;;;;16.49;83.09;101089.31;5003265;28;45577;-69
2021/06/30 01:24:27;;;;;;;;;5.50;5.50;;;;;16.46;83.14;101090.50;5003820;28;45494;-74
2021/06/30 01:26:52;;;;;;;;;6.00;6.00;;;;;16.45;83.07;101088.03;5007138;28;45544;-75
2021/06/30 01:29:20;;;;;;;;;7.00;4.00;;;;;16.43;83.11;101082.88;5007988;28;45667;-75
2021/06/30 01:31:48;;;;;;;;;5.25;5.25;;;;;16.43;82.80;101080.19;5006350;28;47001;-69
2021/06/30 01:34:13;;;;;;;;;7.75;5.25;;;;;16.43;83.41;101085.53;5007818;28;45647;-68
2021/06/30 01:36:54;;;;;;;;;7.25;7.25;;;;;16.45;83.56;101077.38;5009744;28;46079;-66
2021/06/30 01:39:23;;;;;;;;;5.50;5.50;;;;;16.44;83.16;101087.19;5004900;28;45601;-64
2021/06/30 01:41:48;;;;;;;;;5.25;4.00;;;;;16.45;83.72;101082.69;5005387;28;45647;-70
2021/06/30 01:44:14;;;;;;;;;9.00;5.75;;;;;16.45;83.55;101082.69;5007948;28;45545;-72
2021/06/30 01:46:43;;;;;;;;;10.00;6.00;;;;;16.44;83.03;101086.34;5006115;28;45551;-70
2021/06/30 01:49:09;;;;;;;;;6.25;5.50;;;;;16.43;83.31;101085.53;5005799;28;45517;-66
2021/06/30 01:51:35;;;;;;;;;7.00;7.00;;;;;16.43;83.20;101084.72;5005968;28;45516;-64
2021/06/30 01:54:04;;;;;;;;;7.00;7.00;;;;;16.42;83.32;101088.38;5000441;28;45764;-69
2021/06/30 01:56:32;;;;;;;;;6.75;6.00;;;;;16.42;83.55;101091.88;5007430;28;45541;-71
2021/06/30 01:59:14;;;;;;;;;7.25;6.00;;;;;16.40;83.24;101091.22;5002266;28;45664;-71
2021/06/30 02:01:43;;;;;;;;;7.75;5.75;;;;;16.38;83.75;101090.56;5005587;28;46396;-72
2021/06/30 02:04:09;;;;;;;;;6.50;4.75;;;;;16.39;84.24;101089.56;5008503;28;46664;-71
2021/06/30 02:06:40;;;;;;;;;4.00;4.00;;;;;16.38;84.40;101089.75;5006589;28;45575;-70
2021/06/30 02:09:12;;;;;;;;;5.25;5.25;;;;;16.39;84.19;101092.22;5006864;28;45636;-64
2021/06/30 02:11:38;;;;;;;;;5.25;4.75;;;;;16.39;84.34;101089.56;5011020;28;46395;-69
2021/06/30 02:14:06;;;;;;;;;5.00;4.00;;;;;16.42;84.22;101099.88;5010746;28;46080;-69
2021/06/30 02:16:32;;;;;;;;;4.00;4.00;;;;;16.42;84.57;101091.03;5007919;28;45456;-72
2021/06/30 02:19:03;;;;;;;;;5.75;4.00;;;;;16.43;84.42;101093.53;5009609;28;45510;-75
2021/06/30 02:21:29;;;;;;;;;6.00;5.00;;;;;16.42;84.03;101093.69;5012733;28;47437;-65
2021/06/30 02:23:54;;;;;;;;;4.75;4.25;;;;;16.43;84.45;101095.38;5009470;28;45615;-75
2021/06/30 02:26:20;;;;;;;;;6.25;5.25;;;;;16.42;83.43;101094.56;5011448;28;46027;-64
2021/06/30 02:28:45;;;;;;;;;9.50;6.50;;;;;16.42;84.06;101097.22;5006494;28;45661;-75
2021/06/30 02:31:10;;;;;;;;;8.25;6.50;;;;;16.42;84.16;101099.88;5010057;28;45556;-70
2021/06/30 02:33:36;;;;;;;;;6.50;6.25;;;;;16.43;84.14;101098.88;5005836;28;45927;-69
2021/06/30 02:36:01;;;;;;;;;6.00;5.50;;;;;16.41;83.88;101102.72;5008486;28;45493;-76
2021/06/30 02:38:27;;;;;;;;;5.50;5.50;;;;;16.39;84.29;101099.41;5011349;28;45760;-72
2021/06/30 02:40:52;;;;;;;;;6.75;6.00;;;;;16.38;83.27;101095.91;5009648;28;47335;-64
2021/06/30 02:43:18;;;;;;;;;7.75;6.00;;;;;16.34;84.32;101108.78;5012793;28;45409;-64
2021/06/30 02:45:43;;;;;;;;;8.00;6.50;;;;;16.32;85.13;101108.13;5010853;28;45670;-65
2021/06/30 02:48:08;;;;;;;;;11.50;7.50;;;;;16.29;85.30;101110.31;5010337;28;45614;-65
2021/06/30 02:50:34;;;;;;;;;8.25;6.75;;;;;16.26;85.94;101113.34;5012047;28;45483;-65
2021/06/30 02:52:59;;;;;;;;;9.75;8.25;;;;;16.21;87.07;101118.38;5009374;28;45447;-75
2021/06/30 02:55:24;;;;;;;;;11.50;7.00;;;;;16.15;86.20;101103.91;5008250;28;45544;-66
2021/06/30 02:57:50;;;;;;;;;10.00;9.00;;;;;16.10;86.96;101107.13;5009704;28;45419;-69
2021/06/30 03:00:21;;;;;;;;;12.00;7.50;;;;;16.07;88.53;101107.47;5014066;28;46038;-64
2021/06/30 03:02:48;;;;;;;;;10.75;9.00;;;;;16.04;88.68;101112.31;5012701;28;45486;-65
2021/06/30 03:05:13;;;;;;;;;8.00;8.00;;;;;16.00;88.93;101111.84;5010523;28;45944;-66
2021/06/30 03:07:39;;;;;;;;;12.00;8.75;;;;;15.99;88.83;101114.69;5008516;28;45598;-75
2021/06/30 03:10:07;;;;;;;;;11.25;8.50;;;;;15.96;89.39;101110.53;5006326;28;45540;-75
2021/06/30 03:12:33;;;;;;;;;11.75;10.00;;;;;15.96;88.97;101115.84;5004903;28;45706;-64
2021/06/30 03:14:59;;;;;;;;;8.00;7.50;;;;;15.92;88.77;101114.53;5006976;28;45519;-64
2021/06/30 03:17:24;;;;;;;;;9.75;6.75;;;;;15.93;89.17;101118.88;5007499;28;45560;-69
2021/06/30 03:19:50;;;;;;;;;8.00;8.00;;;;;15.93;88.85;101126.88;5010165;28;45628;-75
2021/06/30 03:22:15;;;;;;;;;9.50;8.00;;;;;15.94;88.42;101125.84;5000751;28;45632;-73
2021/06/30 03:24:40;;;;;;;;;10.25;9.00;;;;;15.95;87.20;101130.19;5004638;28;45824;-65
2021/06/30 03:27:06;;;;;;;;;11.25;9.00;;;;;15.96;86.84;101121.19;5005114;28;45564;-75
2021/06/30 03:29:31;;;;;;;;;14.25;9.50;;;;;15.95;86.13;101127.53;5010551;28;46055;-71
2021/06/30 03:31:57;;;;;;;;;13.25;10.00;;;;;15.93;85.05;101129.53;5006231;28;45574;-65
2021/06/30 03:34:23;;;;;;;;;14.50;9.75;;;;;15.92;85.27;101125.19;5006557;28;45888;-65
2021/06/30 03:36:48;;;;;;;;;11.75;10.00;;;;;15.93;85.67;101129.53;5007694;28;45629;-66
2021/06/30 03:39:13;;;;;;;;;12.00;9.00;;;;;15.92;85.50;101125.19;5003202;28;47800;-68
2021/06/30 03:41:39;;;;;;;;;13.50;10.00;;;;;15.92;85.41;101127.88;5009873;28;45524;-64
2021/06/30 03:44:04;;;;;;;;;17.00;11.75;;;;;15.94;84.65;101133.84;5007043;28;45616;-66
2021/06/30 03:46:30;;;;;;;;;14.00;11.50;;;;;15.93;84.72;101134.06;5002423;28;45911;-71
2021/06/30 03:48:55;;;;;;;;;13.00;11.25;;;;;15.93;84.51;101142.88;5005730;28;45581;-75
2021/06/30 03:51:20;;;;;;;;;10.75;8.75;;;;;15.93;84.59;101137.53;5004027;28;45620;-66
2021/06/30 03:53:47;;;;;;;;;14.75;10.50;;;;;15.94;84.89;101138.38;5006233;28;45525;-65
2021/06/30 03:56:12;;;;;;;;;11.00;10.75;;;;;15.95;84.80;101140.00;5004240;28;45637;-71
2021/06/30 03:58:38;;;;;;;;;18.25;14.25;;;;;15.96;84.09;101137.19;5008541;28;47096;-71
2021/06/30 04:01:03;;;;;;;;;12.50;10.00;;;;;15.96;84.27;101142.50;5022702;28;46306;-72
2021/06/30 04:03:28;;;;;;;;;16.25;12.25;;;;;15.95;84.49;101134.69;5007642;28;45548;-71
2021/06/30 04:05:54;;;;;;;;;15.25;12.50;;;;;15.94;84.03;101144.53;5010166;28;45504;-71
2021/06/30 04:08:19;;;;;;;;;14.50;13.25;;;;;15.95;84.30;101142.69;5010332;28;45564;-65
2021/06/30 04:10:45;;;;;;;;;17.75;12.25;;;;;15.93;84.19;101137.53;5007103;28;45628;-64
2021/06/30 04:13:11;;;;;;;;;12.75;9.75;;;;;15.95;84.61;101140.88;5005627;28;45466;-64
2021/06/30 04:15:36;;;;;;;;;15.25;14.50;;;;;15.96;84.72;101136.34;5007476;28;45450;-64
2021/06/30 04:18:06;;;;;;;;;15.50;14.75;;;;;15.96;84.68;101142.50;5021428;28;47997;-68
2021/06/30 04:20:32;;;;;;;;;17.75;16.00;;;;;15.97;84.76;101136.16;5009174;28;46481;-63
2021/06/30 04:22:57;;;;;;;;;18.25;15.25;;;;;15.97;84.14;101138.00;5006919;28;45509;-64
2021/06/30 04:25:22;;;;;;;;;18.75;16.00;;;;;15.98;84.58;101137.84;5007009;28;45519;-65
2021/06/30 04:27:48;;;;;;;;;18.50;14.00;;;;;15.99;84.88;101136.00;5007033;28;47238;-64
2021/06/30 04:30:14;;;;;;;;;21.00;13.00;;;;;15.99;84.14;101144.81;5003612;28;45449;-68
2021/06/30 04:32:39;;;;;;;;;14.75;12.25;;;;;16.00;84.21;101143.84;5008273;28;45536;-69
2021/06/30 04:35:06;;;;;;;;;20.50;14.75;;;;;15.99;84.35;101150.16;5007258;28;45732;-66
2021/06/30 04:37:32;;;;;;;;;16.25;14.25;;;;;15.98;84.77;101151.16;5002129;28;47569;-68
2021/06/30 04:39:58;;;;;;;;;18.75;14.00;;;;;15.99;84.90;101150.16;5006807;28;45538;-67
2021/06/30 04:42:23;;;;;;;;;20.00;16.75;;;;;16.00;84.44;101148.31;5009804;28;45502;-74
2021/06/30 04:44:49;;;;;;;;;18.00;14.25;;;;;15.99;85.15;101147.50;5008150;28;45545;-64
2021/06/30 04:47:14;;;;;;;;;17.75;13.00;;;;;16.00;84.92;101151.84;5009359;28;45570;-69
2021/06/30 04:49:39;;;;;;;;;17.00;14.00;;;;;16.01;84.58;101153.47;5008460;28;45813;-65
2021/06/30 04:52:05;;;;;;;;;14.50;13.00;;;;;16.01;84.50;101150.81;5008694;28;45611;-64
2021/06/30 04:54:30;;;;;;;;;14.75;11.50;;;;;15.99;84.53;101152.81;5009584;28;45496;-64
2021/06/30 04:56:56;;;;;;;;;12.50;9.00;;;;;16.01;84.29;101156.16;5007811;28;45906;-66
2021/06/30 04:59:21;;;;;;;;;13.00;11.50;;;;;15.99;84.57;101147.50;5006181;28;45487;-64
2021/06/30 05:01:47;;;;;;;;;14.50;11.50;;;;;16.00;84.14;101149.16;5006505;28;45494;-66
2021/06/30 05:04:13;;;;;;;;;12.25;12.25;;;;;15.99;84.66;101144.00;5004776;28;45563;-64
2021/06/30 05:06:38;;;;;;;;;13.25;12.00;;;;;16.01;84.77;101150.81;5005872;28;46478;-69
2021/06/30 05:09:04;;;;;;;;;13.25;11.75;;;;;16.03;84.60;101153.31;5007986;28;45523;-65
2021/06/30 05:11:31;;;;;;;;;11.00;11.00;;;;;16.02;87.32;101156.97;5005517;28;46824;-64
2021/06/30 05:13:56;;;;;;;;;12.75;10.00;;;;;16.00;87.95;101157.16;5007296;28;45492;-67
2021/06/30 05:16:24;;;;;;;;;11.00;7.75;;;;;15.99;87.30;101157.31;5006584;28;46153;-75
2021/06/30 05:18:49;;;;;;;;;10.50;9.50;;;;;15.98;87.63;101156.50;5008371;28;45541;-67
2021/06/30 05:21:15;;;;;;;;;12.25;9.25;;;;;15.99;86.84;101162.66;5006676;28;45537;-71
2021/06/30 05:23:40;;;;;;;;;10.00;8.50;;;;;16.01;85.38;101166.81;5005034;28;45560;-67
2021/06/30 05:26:06;;;;;;;;;9.50;7.50;;;;;16.00;84.32;101165.16;5004586;28;48093;-67
2021/06/30 05:28:31;;;;;;;;;10.00;8.50;;;;;16.00;85.01;101167.84;5005041;28;45616;-67
2021/06/30 05:30:59;;;;;;;;;8.50;7.00;;;;;16.01;84.64;101173.97;5002390;28;45905;-75
2021/06/30 05:33:25;;;;;;;;;7.50;7.50;;;;;16.00;84.95;101175.81;5007749;28;45680;-67
2021/06/30 05:35:50;;;;;;;;;9.00;8.25;;;;;16.01;84.58;101182.81;5005052;28;45446;-70
2021/06/30 05:38:16;;;;;;;;;10.00;6.75;;;;;16.02;83.83;101170.31;5005923;28;45691;-71
2021/06/30 05:40:41;;;;;;;;;9.00;7.00;;;;;16.02;83.98;101183.63;5000707;28;45372;-67
2021/06/30 05:43:07;;;;;;;;;5.50;5.00;;;;;16.01;84.42;101182.81;5000832;28;45556;-73
2021/06/30 05:45:33;;;;;;;;;7.50;6.75;;;;;16.02;84.26;101173.81;5003449;28;47454;-75
2021/06/30 05:47:58;;;;;;;;;10.00;8.00;;;;;16.01;85.14;101180.13;5002073;28;45580;-68
2021/06/30 05:50:23;;;;;;;;;9.25;7.50;;;;;16.00;85.09;101181.16;5008651;28;45540;-69
2021/06/30 05:52:49;;;;;;;;;7.75;7.00;;;;;15.99;85.83;101174.16;5006521;28;45936;-74
2021/06/30 05:55:14;;;;;;;;;7.50;7.00;;;;;15.97;86.40;101184.16;5006321;28;45836;-73
2021/06/30 05:57:40;;;;;;;;;9.75;7.50;;;;;15.94;87.41;101189.00;5003751;28;45702;-68
2021/06/30 06:00:11;;;;;;;;;10.75;7.25;;;;;15.91;87.45;101182.19;5005488;28;45402;-67
2021/06/30 06:02:37;;;;;;;;;10.50;7.50;;;;;15.86;87.76;101185.38;5008608;28;45758;-71
2021/06/30 06:05:04;;;;;;;;;9.00;6.00;;;;;15.82;88.50;101184.03;5007632;28;45625;-68
2021/06/30 06:07:29;;;;;;;;;12.75;8.25;;;;;15.79;88.54;101178.25;5005719;28;45540;-72
2021/06/30 06:09:55;;;;;;;;;9.75;7.00;;;;;15.77;88.74;101191.72;5012596;28;45568;-71
2021/06/30 06:12:20;;;;;;;;;10.00;9.00;;;;;15.73;88.49;101189.59;5011212;28;45461;-72
2021/06/30 06:14:46;;;;;;;;;7.00;6.00;;;;;15.69;88.71;101189.06;5012505;28;46994;-67
2021/06/30 06:17:11;;;;;;;;;10.25;7.00;;;;;15.66;89.08;101195.56;5013132;28;45757;-72
2021/06/30 06:19:37;;;;;;;;;7.00;6.50;;;;;15.64;89.02;101197.56;5007300;28;46129;-68
2021/06/30 06:22:05;;;;;;;;;7.75;5.50;;;;;15.60;88.93;101200.75;5006928;28;45449;-72
2021/06/30 06:24:31;;;;;;;;;10.25;6.75;;;;;15.58;88.87;101208.94;5008788;28;46213;-67
2021/06/30 06:26:57;;;;;;;;;9.00;6.50;;;;;15.55;88.87;101211.91;5012204;28;45750;-66
2021/06/30 06:29:23;;;;;;;;;7.00;5.75;;;;;15.56;89.18;101210.09;5013302;28;45552;-67
2021/06/30 06:31:49;;;;;;;;;6.50;6.00;;;;;15.59;88.78;101212.41;5013845;28;45524;-67
2021/06/30 06:34:20;;;;;;;;;4.00;4.00;;;;;15.63;88.90;101206.59;5008532;28;46402;-70
2021/06/30 06:36:50;;;;;;;;;7.00;6.00;;;;;15.71;88.23;101210.25;5004211;28;45575;-72
2021/06/30 06:39:17;;;;;;;;;7.00;5.25;;;;;15.73;88.19;101210.94;5008497;28;45565;-70
2021/06/30 06:41:42;;;;;;;;;7.00;4.00;;;;;15.79;88.54;101215.56;5006792;28;45505;-67
2021/06/30 06:44:08;;;;;;;;;5.00;5.00;;;;;15.82;87.04;101217.88;5005930;28;48447;-71
2021/06/30 06:46:35;;;;;;;;;6.75;5.00;;;;;15.83;87.09;101222.22;5007169;28;45554;-71
2021/06/30 06:49:00;;;;;;;;;8.00;5.25;;;;;15.86;86.29;101221.88;5013483;28;45537;-72
2021/06/30 06:51:26;;;;;;;;;7.25;5.25;;;;;15.88;85.81;101225.19;5007535;28;45552;-73
2021/06/30 06:53:52;;;;;;;;;9.50;5.25;;;;;15.92;85.62;101221.16;5015394;28;46027;-67
2021/06/30 06:56:25;;;;;;;;;6.00;6.00;;;;;15.95;86.19;101219.97;5010174;28;45753;-67
2021/06/30 06:58:50;;;;;;;;;6.00;6.00;;;;;15.99;85.44;101226.63;5007185;28;45552;-67
2021/06/30 07:01:15;;;;;;;;;6.00;5.50;;;;;16.01;84.91;101222.78;4997272;28;45548;-67
2021/06/30 07:03:41;;;;;;;;;5.50;5.50;;;;;16.06;85.09;101225.78;5003326;28;46476;-71
2021/06/30 07:06:06;;;;;;;;;6.25;6.00;;;;;16.10;84.27;101226.28;5004691;28;45773;-71
2021/06/30 07:08:32;;;;;;;;;6.00;5.75;;;;;16.11;84.38;101231.41;5005030;28;45524;-67
2021/06/30 07:10:57;;;;;;;;;10.50;8.75;;;;;16.13;83.88;101221.41;5004337;28;45518;-73
2021/06/30 07:13:22;;;;;;;;;8.50;6.75;;;;;16.19;84.28;101229.72;5004814;28;46261;-67
2021/06/30 07:15:49;;;;;;;;;8.75;7.00;;;;;16.22;83.97;101232.88;5003338;28;45612;-72
2021/06/30 07:18:15;;;;;;;;;8.00;7.00;;;;;16.27;83.84;101229.66;5005881;28;46043;-72
2021/06/30 07:20:41;;;;;;;;;9.00;8.00;;;;;16.31;83.58;101234.47;5007574;28;45537;-74
2021/06/30 07:23:06;;;;;;;;;6.75;6.75;;;;;16.35;83.49;101232.31;5005380;28;46298;-67
2021/06/30 07:25:32;;;;;;;;;9.75;9.00;;;;;16.44;82.98;101235.75;5008937;28;45571;-67
2021/06/30 07:27:57;;;;;;;;;8.25;7.25;;;;;16.51;83.46;101232.19;5009368;28;45516;-68
2021/06/30 07:30:22;;;;;;;;;6.25;5.50;;;;;16.60;82.77;101232.16;5010952;28;45579;-70
2021/06/30 07:32:48;;;;;;;;;7.25;7.25;;;;;16.64;81.70;101236.97;5006944;28;45499;-74
2021/06/30 07:35:13;;;;;;;;;10.25;8.00;;;;;16.70;81.51;101241.59;5004055;28;45865;-70
2021/06/30 07:37:39;;;;;;;;;8.50;7.25;;;;;16.73;81.52;101237.75;5006417;28;45950;-69
2021/06/30 07:40:07;;;;;;;;;10.75;6.50;;;;;16.77;81.87;101239.88;5004989;28;45604;-71
2021/06/30 07:42:32;;;;;;;;;8.00;7.00;;;;;16.86;81.50;101250.53;5011942;28;45541;-69
2021/06/30 07:44:58;;;;;;;;;9.50;9.00;;;;;16.96;81.58;101251.09;5006443;28;45426;-72
2021/06/30 07:47:23;;;;;;;;;8.75;8.75;;;;;17.03;80.88;101256.56;5006148;28;45870;-75
2021/06/30 07:49:48;;;;;;;;;10.75;8.00;;;;;17.06;81.07;101256.22;5020580;28;45453;-67
2021/06/30 07:52:14;;;;;;;;;10.25;8.00;;;;;17.09;80.23;101256.69;5023656;28;47790;-74
2021/06/30 07:54:39;;;;;;;;;8.75;8.75;;;;;17.09;80.87;101253.19;5004686;28;46553;-73
2021/06/30 07:57:04;;;;;;;;;8.00;7.50;;;;;17.09;81.09;101261.22;5006471;28;45557;-74
2021/06/30 07:59:30;;;;;;;;;10.50;8.00;;;;;17.10;80.49;101249.50;5004250;28;45414;-72
2021/06/30 08:01:55;;;;;;;;;10.00;8.00;;;;;17.16;80.94;101256.78;5003680;28;45615;-68
2021/06/30 08:04:21;;;;;;;;;8.25;8.00;;;;;17.24;80.58;101240.72;5008916;28;45607;-68
2021/06/30 08:06:47;;;;;;;;;11.00;9.00;;;;;17.35;80.78;101247.44;4999145;28;45707;-74
2021/06/30 08:09:13;;;;;;;;;10.00;8.50;;;;;17.47;80.70;101242.50;5002994;28;45619;-69
2021/06/30 08:11:38;;;;;;;;;12.00;9.75;;;;;17.57;80.10;101243.06;5005858;28;46191;-75
2021/06/30 08:14:03;;;;;;;;;9.75;8.50;;;;;17.69;79.88;101241.59;5004073;28;45542;-71
2021/06/30 08:16:29;;;;;;;;;9.75;8.25;;;;;17.82;79.61;101240.97;5007855;28;45493;-68
2021/06/30 08:18:54;;;;;;;;;10.75;9.00;;;;;17.97;78.68;101238.28;5005506;28;45642;-69
2021/06/30 08:21:24;;;;;;;;;11.75;9.00;;;;;18.12;78.60;101246.31;5006915;28;45485;-69
2021/06/30 08:23:50;;;;;;;;;7.75;6.75;;;;;18.33;77.69;101245.53;5004176;28;45739;-69
2021/06/30 08:26:16;;;;;;;;;10.00;8.50;;;;;18.49;77.13;101239.94;5012898;28;45842;-69
2021/06/30 08:28:41;;;;;;;;;10.75;9.50;;;;;18.57;76.71;101239.84;5005149;28;45532;-68
2021/06/30 08:31:07;;;;;;;;;12.75;9.25;;;;;18.60;76.45;101252.03;5005431;28;46141;-69
2021/06/30 08:33:33;;;;;;;;;12.00;9.25;;;;;18.57;75.75;101253.25;5006499;28;45607;-74
2021/06/30 08:35:59;;;;;;;;;10.00;10.00;;;;;18.59;75.76;101248.50;5008355;28;45656;-74
2021/06/30 08:38:24;;;;;;;;;13.25;10.25;;;;;18.64;76.69;101245.25;5007818;28;45873;-74
2021/06/30 08:40:54;;;;;;;;;13.25;9.00;;;;;18.74;75.98;101244.94;5006458;28;45633;-77
2021/06/30 08:43:20;;;;;;;;;9.00;9.00;;;;;18.84;75.79;101248.16;5004435;28;45429;-68
2021/06/30 08:45:45;;;;;;;;;10.75;9.75;;;;;18.94;75.16;101254.06;5005082;28;45486;-72
2021/06/30 08:48:11;;;;;;;;;10.00;9.50;;;;;18.95;74.59;101247.66;5002699;28;46080;-70
2021/06/30 08:50:40;;;;;;;;;11.25;10.25;;;;;18.97;74.77;101248.31;5003957;28;45571;-72
2021/06/30 08:53:10;;;;;;;;;15.25;11.00;;;;;19.03;74.66;101255.56;5000651;28;47585;-69
2021/06/30 08:55:38;;;;;;;;;14.00;12.00;;;;;19.05;74.17;101244.66;5004003;28;45633;-69
2021/06/30 08:58:04;;;;;;;;;11.75;11.00;;;;;19.10;74.13;101251.09;5005097;28;45557;-69
2021/06/30 09:00:30;;;;;;;;;14.25;13.25;;;;;19.16;73.60;101243.31;5003225;28;46040;-68
2021/06/30 09:02:59;;;;;;;;;13.75;13.00;;;;;19.18;73.12;101239.41;5006186;28;45616;-72
2021/06/30 09:07:52;;;;;;;;;14.50;10.50;;;;;19.45;73.79;101243.13;5005884;28;45655;-76
2021/06/30 09:10:30;;;;;;;;;13.75;12.75;;;;;19.71;73.08;101241.69;5003254;28;45640;-70
2021/06/30 09:12:56;;;;;;;;;14.00;12.00;;;;;20.04;71.82;101249.06;5003419;28;45421;-71
2021/06/30 09:15:28;;;;;;;;;13.50;9.50;;;;;20.18;71.89;101245.41;5005330;28;45655;-68
2021/06/30 09:17:54;;;;;;;;;10.00;9.00;;;;;20.28;71.90;101248.56;5002725;28;46069;-67
2021/06/30 09:20:19;;;;;;;;;16.50;10.75;;;;;20.51;71.39;101242.00;5011819;28;46562;-68
2021/06/30 09:22:51;;;;;;;;;11.50;11.50;;;;;20.65;70.15;101243.72;5004722;28;45525;-71
2021/06/30 09:25:34;;;;;;;;;9.50;9.50;;;;;20.63;70.36;101245.78;5003291;28;45473;-74
2021/06/30 09:28:24;;;;;;;;;11.25;9.25;;;;;20.56;69.50;101253.00;5007133;28;45730;-67
2021/06/30 09:31:00;;;;;;;;;13.00;9.25;;;;;20.58;70.15;101254.44;5006568;28;45540;-75
2021/06/30 09:33:51;;;;;;;;;12.50;12.00;;;;;20.71;69.14;101252.81;5006342;28;45596;-75
2021/06/30 09:36:16;;;;;;;;;11.50;10.75;;;;;20.77;69.61;101252.84;5011512;28;45760;-73
2021/06/30 09:38:44;;;;;;;;;10.75;10.25;;;;;20.76;68.59;101253.88;5017995;28;45521;-71
2021/06/30 09:41:27;;;;;;;;;12.50;9.50;;;;;20.69;69.20;101260.25;5009987;28;45616;-73
2021/06/30 09:44:01;;;;;;;;;9.75;8.75;;;;;20.60;69.79;101259.63;5004831;28;45538;-70
2021/06/30 09:46:27;;;;;;;;;11.00;9.25;;;;;20.52;70.01;101260.59;5008444;28;45584;-73
2021/06/30 09:49:00;;;;;;;;;9.50;8.75;;;;;20.32;69.19;101260.53;5002523;28;45457;-73
2021/06/30 09:51:26;;;;;;;;;10.00;8.50;;;;;20.05;69.24;101269.50;5007500;28;45583;-75
2021/06/30 09:53:53;;;;;;;;;10.25;8.50;;;;;19.83;69.81;101255.34;5007240;28;45579;-69
2021/06/30 09:56:37;;;;;;;;;11.25;8.75;;;;;19.71;71.22;101263.13;5011518;28;45690;-71
2021/06/30 09:59:09;;;;;;;;;13.00;9.75;;;;;19.64;71.27;101265.72;5001500;28;45508;-72
2021/06/30 10:01:37;;;;;;;;;13.00;10.75;;;;;19.61;71.40;101266.13;5005813;28;47140;-70
2021/06/30 10:04:03;;;;;;;;;9.50;8.25;;;;;19.77;71.43;101263.16;5002306;28;45516;-73
2021/06/30 10:06:31;;;;;;;;;15.25;11.25;;;;;20.06;71.37;101271.16;5005449;28;45655;-73
2021/06/30 10:08:59;;;;;;;;;8.75;8.00;;;;;20.43;70.27;101274.41;5005019;28;45808;-68
2021/06/30 10:11:28;;;;;;;;;10.25;8.25;;;;;20.63;69.24;101279.88;5016234;28;45571;-71
2021/06/30 10:13:55;;;;;;;;;13.00;9.00;;;;;20.69;68.01;101277.19;5005026;28;45669;-73
2021/06/30 10:16:22;;;;;;;;;13.50;11.25;;;;;20.67;68.65;101273.88;5010763;28;45632;-75
2021/06/30 10:18:53;;;;;;;;;16.00;10.00;;;;;20.60;68.59;101275.75;5015210;28;45450;-69
2021/06/30 10:21:22;;;;;;;;;9.75;9.00;;;;;20.47;68.23;101278.34;5009960;28;45601;-72
2021/06/30 10:23:49;;;;;;;;;25.25;19.75;;;;;20.29;68.19;101279.72;5007817;28;45552;-76
2021/06/30 10:26:15;;;;;;;;;17.50;11.00;;;;;20.21;68.52;101276.41;5014939;28;45433;-74
2021/06/30 10:28:42;;;;;;;;;11.50;10.50;;;;;20.22;68.27;101280.72;5016594;28;45508;-73
2021/06/30 10:31:08;;;;;;;;;11.25;9.75;;;;;20.33;69.18;101274.78;5013730;28;47520;-72
2021/06/30 10:33:40;;;;;;;;;14.75;9.50;;;;;20.47;69.53;101267.59;5013271;28;45923;-71
2021/06/30 10:36:08;;;;;;;;;10.50;9.25;;;;;20.51;68.88;101269.69;5007145;28;46046;-73
2021/06/30 10:38:54;;;;;;;;;13.50;12.25;;;;;20.45;68.75;101269.66;5013180;28;45485;-73
2021/06/30 10:41:41;;;;;;;;;7.00;7.00;;;;;20.37;67.71;101274.16;5017790;28;45446;-72
2021/06/30 10:44:07;;;;;;;;;9.25;8.25;;;;;20.31;67.66;101272.31;5016288;28;45497;-72
2021/06/30 10:46:33;;;;;;;;;11.25;8.75;;;;;20.27;67.94;101272.91;5015931;28;45417;-75
2021/06/30 10:49:13;;;;;;;;;9.75;8.25;;;;;20.19;67.30;101271.22;5017279;28;45519;-69
2021/06/30 10:51:43;;;;;;;;;10.50;8.75;;;;;20.11;66.38;101274.06;5012228;28;45601;-71
2021/06/30 10:54:44;;;;;;;;;11.00;9.50;;;;;20.06;67.28;101274.66;4998930;28;45868;-72
2021/06/30 10:57:27;;;;;;;;;10.50;9.75;;;;;20.09;68.93;101271.59;5003852;28;45572;-73
2021/06/30 11:00:00;;;;;;;;;9.75;8.00;;;;;20.13;67.85;101272.84;5008658;28;45522;-69
2021/06/30 11:02:25;;;;;;;;;9.50;8.00;;;;;20.13;68.05;101282.75;5020214;28;45409;-71
2021/06/30 11:04:52;;;;;;;;;11.50;9.75;;;;;20.09;67.81;101289.53;5013631;28;45484;-72
2021/06/30 11:07:35;;;;;;;;;12.00;11.50;;;;;19.98;68.37;101275.66;4994697;28;45744;-73
2021/06/30 11:10:16;;;;;;;;;15.75;13.00;;;;;19.87;68.09;101281.56;5003647;28;45544;-76
2021/06/30 11:12:54;;;;;;;;;15.25;14.00;;;;;19.70;68.49;101280.22;5004214;28;46004;-73
2021/06/30 11:15:44;;;;;;;;;13.50;11.50;;;;;19.51;69.47;101289.75;5004656;28;45455;-73
2021/06/30 11:18:09;;;;;;;;;16.00;12.75;;;;;19.33;69.35;101285.69;4995819;28;45632;-73
2021/06/30 11:20:46;;;;;;;;;12.75;12.75;;;;;19.18;69.74;101292.16;5003314;28;45534;-70